sensor_id;sensor_type;location;lat;lon;timestamp;P1;durP1;ratioP1;P2;durP2;ratioP2
7104;SDS011;3594;42.152;24.714;2023-07-20T00:00:47;7.03;;;4.00;;
7104;SDS011;3594;42.152;24.714;2023-07-20T00:03:15;8.23;;;4.30;;
7104;SDS011;3594;42.152;24.714;2023-07-20T00:05:48;6.82;;;4.15;;
7104;SDS011;3594;42.152;24.714;2023-07-20T00:08:13;9.40;;;4.30;;
7104;SDS011;3594;42.152;24.714;2023-07-20T00:10:40;7.28;;;3.92;;
7104;SDS011;3594;42.152;24.714;2023-07-20T00:13:05;7.22;;;4.38;;
7104;SDS011;3594;42.152;24.714;2023-07-20T00:15:31;7.57;;;4.60;;
7104;SDS011;3594;42.152;24.714;2023-07-20T00:17:56;7.55;;;4.50;;
7104;SDS011;3594;42.152;24.714;2023-07-20T00:20:23;7.78;;;4.05;;
7104;SDS011;3594;42.152;24.714;2023-07-20T00:22:49;6.20;;;4.20;;
7104;SDS011;3594;42.152;24.714;2023-07-20T00:25:16;8.30;;;4.25;;
7104;SDS011;3594;42.152;24.714;2023-07-20T00:27:42;7.63;;;4.45;;
7104;SDS011;3594;42.152;24.714;2023-07-20T00:30:07;7.47;;;4.15;;
7104;SDS011;3594;42.152;24.714;2023-07-20T00:32:33;5.57;;;4.13;;
7104;SDS011;3594;42.152;24.714;2023-07-20T00:34:58;7.20;;;4.65;;
7104;SDS011;3594;42.152;24.714;2023-07-20T00:37:24;7.55;;;4.45;;
7104;SDS011;3594;42.152;24.714;2023-07-20T00:39:49;6.68;;;4.10;;
7104;SDS011;3594;42.152;24.714;2023-07-20T00:42:14;7.88;;;4.70;;
7104;SDS011;3594;42.152;24.714;2023-07-20T00:44:40;8.65;;;4.63;;
7104;SDS011;3594;42.152;24.714;2023-07-20T00:47:05;6.95;;;4.18;;
7104;SDS011;3594;42.152;24.714;2023-07-20T00:49:31;5.90;;;3.95;;
7104;SDS011;3594;42.152;24.714;2023-07-20T00:51:58;6.65;;;4.10;;
7104;SDS011;3594;42.152;24.714;2023-07-20T00:54:25;5.72;;;4.10;;
7104;SDS011;3594;42.152;24.714;2023-07-20T00:56:52;6.07;;;4.40;;
7104;SDS011;3594;42.152;24.714;2023-07-20T00:59:18;9.15;;;4.05;;
7104;SDS011;3594;42.152;24.714;2023-07-20T01:01:43;7.75;;;4.63;;
7104;SDS011;3594;42.152;24.714;2023-07-20T01:04:09;6.97;;;4.03;;
7104;SDS011;3594;42.152;24.714;2023-07-20T01:09:19;6.80;;;4.20;;
7104;SDS011;3594;42.152;24.714;2023-07-20T01:12:43;9.18;;;4.40;;
7104;SDS011;3594;42.152;24.714;2023-07-20T01:15:03;5.95;;;3.95;;
7104;SDS011;3594;42.152;24.714;2023-07-20T01:17:29;6.95;;;4.13;;
7104;SDS011;3594;42.152;24.714;2023-07-20T01:19:55;5.10;;;3.42;;
7104;SDS011;3594;42.152;24.714;2023-07-20T01:32:45;6.88;;;4.25;;
7104;SDS011;3594;42.152;24.714;2023-07-20T01:35:13;7.55;;;3.72;;
7104;SDS011;3594;42.152;24.714;2023-07-20T01:37:42;6.22;;;4.03;;
7104;SDS011;3594;42.152;24.714;2023-07-20T01:40:09;6.40;;;4.15;;
7104;SDS011;3594;42.152;24.714;2023-07-20T01:42:35;6.68;;;4.38;;
7104;SDS011;3594;42.152;24.714;2023-07-20T01:45:01;5.88;;;4.05;;
7104;SDS011;3594;42.152;24.714;2023-07-20T01:47:26;10.80;;;4.00;;
7104;SDS011;3594;42.152;24.714;2023-07-20T01:49:52;8.68;;;3.92;;
7104;SDS011;3594;42.152;24.714;2023-07-20T01:52:17;5.72;;;3.67;;
7104;SDS011;3594;42.152;24.714;2023-07-20T01:54:42;7.13;;;4.25;;
7104;SDS011;3594;42.152;24.714;2023-07-20T01:57:08;5.80;;;3.75;;
7104;SDS011;3594;42.152;24.714;2023-07-20T01:59:33;6.50;;;4.03;;
7104;SDS011;3594;42.152;24.714;2023-07-20T02:01:59;6.18;;;3.83;;
7104;SDS011;3594;42.152;24.714;2023-07-20T02:04:24;7.13;;;4.00;;
7104;SDS011;3594;42.152;24.714;2023-07-20T02:06:49;7.60;;;4.05;;
7104;SDS011;3594;42.152;24.714;2023-07-20T02:09:15;5.35;;;3.50;;
7104;SDS011;3594;42.152;24.714;2023-07-20T02:11:40;7.05;;;4.00;;
7104;SDS011;3594;42.152;24.714;2023-07-20T02:14:05;5.90;;;3.90;;
7104;SDS011;3594;42.152;24.714;2023-07-20T02:16:31;6.40;;;4.05;;
7104;SDS011;3594;42.152;24.714;2023-07-20T02:18:56;5.30;;;3.90;;
7104;SDS011;3594;42.152;24.714;2023-07-20T02:21:22;6.70;;;3.78;;
7104;SDS011;3594;42.152;24.714;2023-07-20T02:23:48;5.28;;;3.80;;
7104;SDS011;3594;42.152;24.714;2023-07-20T02:26:14;6.38;;;3.92;;
7104;SDS011;3594;42.152;24.714;2023-07-20T02:28:39;6.57;;;3.75;;
7104;SDS011;3594;42.152;24.714;2023-07-20T02:31:06;4.78;;;3.63;;
7104;SDS011;3594;42.152;24.714;2023-07-20T02:33:31;5.85;;;4.00;;
7104;SDS011;3594;42.152;24.714;2023-07-20T02:35:57;6.07;;;4.03;;
7104;SDS011;3594;42.152;24.714;2023-07-20T02:38:22;5.40;;;3.72;;
7104;SDS011;3594;42.152;24.714;2023-07-20T02:40:47;7.90;;;4.10;;
7104;SDS011;3594;42.152;24.714;2023-07-20T02:43:13;7.40;;;4.22;;
7104;SDS011;3594;42.152;24.714;2023-07-20T02:45:41;5.07;;;3.58;;
7104;SDS011;3594;42.152;24.714;2023-07-20T02:48:07;6.70;;;4.03;;
7104;SDS011;3594;42.152;24.714;2023-07-20T02:50:33;5.53;;;3.58;;
7104;SDS011;3594;42.152;24.714;2023-07-20T02:52:59;6.55;;;4.05;;
7104;SDS011;3594;42.152;24.714;2023-07-20T02:55:25;7.05;;;4.22;;
7104;SDS011;3594;42.152;24.714;2023-07-20T02:57:50;5.57;;;3.70;;
7104;SDS011;3594;42.152;24.714;2023-07-20T03:00:16;6.72;;;4.20;;
7104;SDS011;3594;42.152;24.714;2023-07-20T03:02:41;5.85;;;3.47;;
7104;SDS011;3594;42.152;24.714;2023-07-20T03:05:07;8.57;;;4.13;;
7104;SDS011;3594;42.152;24.714;2023-07-20T03:07:33;6.40;;;4.32;;
7104;SDS011;3594;42.152;24.714;2023-07-20T03:09:58;8.18;;;4.28;;
7104;SDS011;3594;42.152;24.714;2023-07-20T03:12:24;9.45;;;4.90;;
7104;SDS011;3594;42.152;24.714;2023-07-20T03:14:49;7.35;;;3.63;;
7104;SDS011;3594;42.152;24.714;2023-07-20T03:17:15;6.15;;;3.97;;
7104;SDS011;3594;42.152;24.714;2023-07-20T03:19:40;6.47;;;4.07;;
7104;SDS011;3594;42.152;24.714;2023-07-20T03:22:06;6.60;;;4.15;;
7104;SDS011;3594;42.152;24.714;2023-07-20T03:24:32;7.35;;;3.80;;
7104;SDS011;3594;42.152;24.714;2023-07-20T03:26:58;7.38;;;4.28;;
7104;SDS011;3594;42.152;24.714;2023-07-20T03:29:23;10.10;;;4.55;;
7104;SDS011;3594;42.152;24.714;2023-07-20T03:31:48;6.57;;;4.30;;
7104;SDS011;3594;42.152;24.714;2023-07-20T03:34:14;5.20;;;3.97;;
7104;SDS011;3594;42.152;24.714;2023-07-20T03:36:39;5.70;;;4.05;;
7104;SDS011;3594;42.152;24.714;2023-07-20T03:39:05;6.22;;;4.10;;
7104;SDS011;3594;42.152;24.714;2023-07-20T03:41:30;7.28;;;4.07;;
7104;SDS011;3594;42.152;24.714;2023-07-20T03:43:56;6.22;;;3.90;;
7104;SDS011;3594;42.152;24.714;2023-07-20T03:46:21;5.60;;;4.18;;
7104;SDS011;3594;42.152;24.714;2023-07-20T03:48:46;7.97;;;4.45;;
7104;SDS011;3594;42.152;24.714;2023-07-20T03:51:13;8.55;;;4.22;;
7104;SDS011;3594;42.152;24.714;2023-07-20T03:53:38;8.23;;;4.10;;
7104;SDS011;3594;42.152;24.714;2023-07-20T03:56:04;7.97;;;5.40;;
7104;SDS011;3594;42.152;24.714;2023-07-20T03:58:29;8.10;;;4.10;;
7104;SDS011;3594;42.152;24.714;2023-07-20T04:00:57;6.45;;;4.28;;
7104;SDS011;3594;42.152;24.714;2023-07-20T04:03:22;9.35;;;4.25;;
7104;SDS011;3594;42.152;24.714;2023-07-20T04:05:53;5.35;;;3.70;;
7104;SDS011;3594;42.152;24.714;2023-07-20T04:08:20;8.13;;;4.57;;
7104;SDS011;3594;42.152;24.714;2023-07-20T04:10:46;5.35;;;3.85;;
7104;SDS011;3594;42.152;24.714;2023-07-20T04:13:11;7.57;;;4.20;;
7104;SDS011;3594;42.152;24.714;2023-07-20T04:15:37;8.15;;;4.47;;
7104;SDS011;3594;42.152;24.714;2023-07-20T04:18:02;6.35;;;4.07;;
7104;SDS011;3594;42.152;24.714;2023-07-20T04:20:30;7.90;;;4.55;;
7104;SDS011;3594;42.152;24.714;2023-07-20T04:22:55;6.63;;;4.30;;
7104;SDS011;3594;42.152;24.714;2023-07-20T04:25:21;9.57;;;3.83;;
7104;SDS011;3594;42.152;24.714;2023-07-20T04:27:46;7.85;;;4.18;;
7104;SDS011;3594;42.152;24.714;2023-07-20T04:30:12;9.13;;;4.20;;
7104;SDS011;3594;42.152;24.714;2023-07-20T04:32:38;8.48;;;4.68;;
7104;SDS011;3594;42.152;24.714;2023-07-20T04:35:10;7.53;;;4.07;;
7104;SDS011;3594;42.152;24.714;2023-07-20T04:37:36;8.15;;;4.57;;
7104;SDS011;3594;42.152;24.714;2023-07-20T04:40:01;8.02;;;4.22;;
7104;SDS011;3594;42.152;24.714;2023-07-20T04:42:28;5.75;;;3.90;;
7104;SDS011;3594;42.152;24.714;2023-07-20T04:44:53;7.20;;;4.28;;
7104;SDS011;3594;42.152;24.714;2023-07-20T04:47:19;6.28;;;3.95;;
7104;SDS011;3594;42.152;24.714;2023-07-20T04:49:44;6.97;;;4.47;;
7104;SDS011;3594;42.152;24.714;2023-07-20T04:52:09;8.75;;;4.57;;
7104;SDS011;3594;42.152;24.714;2023-07-20T04:54:35;16.60;;;5.07;;
7104;SDS011;3594;42.152;24.714;2023-07-20T04:57:00;10.27;;;5.10;;
7104;SDS011;3594;42.152;24.714;2023-07-20T04:59:26;9.68;;;5.05;;
7104;SDS011;3594;42.152;24.714;2023-07-20T05:01:51;10.32;;;5.85;;
7104;SDS011;3594;42.152;24.714;2023-07-20T05:04:17;10.15;;;6.05;;
7104;SDS011;3594;42.152;24.714;2023-07-20T05:06:43;14.23;;;5.75;;
7104;SDS011;3594;42.152;24.714;2023-07-20T05:09:08;9.90;;;5.05;;
7104;SDS011;3594;42.152;24.714;2023-07-20T05:11:34;11.40;;;5.32;;
7104;SDS011;3594;42.152;24.714;2023-07-20T05:13:59;11.10;;;5.88;;
7104;SDS011;3594;42.152;24.714;2023-07-20T05:16:25;10.50;;;5.60;;
7104;SDS011;3594;42.152;24.714;2023-07-20T05:18:50;11.57;;;5.80;;
7104;SDS011;3594;42.152;24.714;2023-07-20T05:21:16;11.32;;;6.38;;
7104;SDS011;3594;42.152;24.714;2023-07-20T05:23:41;14.70;;;5.63;;
7104;SDS011;3594;42.152;24.714;2023-07-20T05:26:07;10.88;;;5.32;;
7104;SDS011;3594;42.152;24.714;2023-07-20T05:28:33;9.77;;;5.00;;
7104;SDS011;3594;42.152;24.714;2023-07-20T05:30:58;11.30;;;5.25;;
7104;SDS011;3594;42.152;24.714;2023-07-20T05:33:24;8.30;;;4.75;;
7104;SDS011;3594;42.152;24.714;2023-07-20T05:35:50;7.60;;;5.38;;
7104;SDS011;3594;42.152;24.714;2023-07-20T05:38:15;11.65;;;5.50;;
7104;SDS011;3594;42.152;24.714;2023-07-20T05:40:41;11.05;;;5.30;;
7104;SDS011;3594;42.152;24.714;2023-07-20T05:43:07;13.38;;;4.85;;
7104;SDS011;3594;42.152;24.714;2023-07-20T05:45:33;8.60;;;5.10;;
7104;SDS011;3594;42.152;24.714;2023-07-20T05:47:58;8.38;;;4.72;;
7104;SDS011;3594;42.152;24.714;2023-07-20T05:50:24;8.30;;;5.43;;
7104;SDS011;3594;42.152;24.714;2023-07-20T05:52:52;9.57;;;5.32;;
7104;SDS011;3594;42.152;24.714;2023-07-20T05:55:18;7.18;;;4.85;;
7104;SDS011;3594;42.152;24.714;2023-07-20T05:57:43;7.88;;;4.82;;
7104;SDS011;3594;42.152;24.714;2023-07-20T06:00:09;7.70;;;4.68;;
7104;SDS011;3594;42.152;24.714;2023-07-20T06:02:35;8.10;;;5.05;;
7104;SDS011;3594;42.152;24.714;2023-07-20T06:05:00;7.35;;;4.63;;
7104;SDS011;3594;42.152;24.714;2023-07-20T06:07:26;11.30;;;5.00;;
7104;SDS011;3594;42.152;24.714;2023-07-20T06:09:51;6.75;;;4.82;;
7104;SDS011;3594;42.152;24.714;2023-07-20T06:12:17;8.60;;;5.07;;
7104;SDS011;3594;42.152;24.714;2023-07-20T06:14:42;7.35;;;4.68;;
7104;SDS011;3594;42.152;24.714;2023-07-20T06:17:08;7.72;;;4.55;;
7104;SDS011;3594;42.152;24.714;2023-07-20T06:19:33;10.65;;;4.72;;
7104;SDS011;3594;42.152;24.714;2023-07-20T06:21:59;8.82;;;4.63;;
7104;SDS011;3594;42.152;24.714;2023-07-20T06:24:24;6.72;;;4.53;;
7104;SDS011;3594;42.152;24.714;2023-07-20T06:26:50;7.55;;;4.75;;
7104;SDS011;3594;42.152;24.714;2023-07-20T06:29:15;6.90;;;4.18;;
7104;SDS011;3594;42.152;24.714;2023-07-20T06:31:40;9.45;;;4.40;;
7104;SDS011;3594;42.152;24.714;2023-07-20T06:34:06;6.82;;;4.55;;
7104;SDS011;3594;42.152;24.714;2023-07-20T06:36:31;8.40;;;4.47;;
7104;SDS011;3594;42.152;24.714;2023-07-20T06:38:57;7.53;;;4.60;;
7104;SDS011;3594;42.152;24.714;2023-07-20T06:41:22;8.25;;;4.40;;
7104;SDS011;3594;42.152;24.714;2023-07-20T06:43:47;8.18;;;4.40;;
7104;SDS011;3594;42.152;24.714;2023-07-20T06:46:13;7.03;;;4.30;;
7104;SDS011;3594;42.152;24.714;2023-07-20T06:48:38;8.02;;;4.40;;
7104;SDS011;3594;42.152;24.714;2023-07-20T06:51:04;7.65;;;4.70;;
7104;SDS011;3594;42.152;24.714;2023-07-20T06:53:30;9.25;;;5.53;;
7104;SDS011;3594;42.152;24.714;2023-07-20T06:55:55;6.20;;;3.97;;
7104;SDS011;3594;42.152;24.714;2023-07-20T06:58:24;8.15;;;4.90;;
7104;SDS011;3594;42.152;24.714;2023-07-20T07:00:49;8.00;;;5.10;;
7104;SDS011;3594;42.152;24.714;2023-07-20T07:03:15;7.85;;;5.10;;
7104;SDS011;3594;42.152;24.714;2023-07-20T07:05:40;12.23;;;4.88;;
7104;SDS011;3594;42.152;24.714;2023-07-20T07:08:06;7.25;;;4.95;;
7104;SDS011;3594;42.152;24.714;2023-07-20T07:10:31;6.47;;;4.78;;
7104;SDS011;3594;42.152;24.714;2023-07-20T07:12:57;8.23;;;5.13;;
7104;SDS011;3594;42.152;24.714;2023-07-20T07:15:23;8.88;;;5.13;;
7104;SDS011;3594;42.152;24.714;2023-07-20T07:17:48;7.15;;;5.07;;
7104;SDS011;3594;42.152;24.714;2023-07-20T07:20:14;9.85;;;4.97;;
7104;SDS011;3594;42.152;24.714;2023-07-20T07:22:39;7.38;;;4.65;;
7104;SDS011;3594;42.152;24.714;2023-07-20T07:25:04;7.38;;;4.47;;
7104;SDS011;3594;42.152;24.714;2023-07-20T07:27:30;8.60;;;4.30;;
7104;SDS011;3594;42.152;24.714;2023-07-20T07:29:56;8.73;;;4.40;;
7104;SDS011;3594;42.152;24.714;2023-07-20T07:32:21;8.13;;;4.90;;
7104;SDS011;3594;42.152;24.714;2023-07-20T07:34:47;7.05;;;4.60;;
7104;SDS011;3594;42.152;24.714;2023-07-20T07:37:13;9.25;;;4.45;;
7104;SDS011;3594;42.152;24.714;2023-07-20T07:39:39;6.93;;;4.50;;
7104;SDS011;3594;42.152;24.714;2023-07-20T07:42:05;7.47;;;4.43;;
7104;SDS011;3594;42.152;24.714;2023-07-20T07:44:31;5.85;;;4.40;;
7104;SDS011;3594;42.152;24.714;2023-07-20T07:46:56;8.25;;;4.93;;
7104;SDS011;3594;42.152;24.714;2023-07-20T07:49:22;6.18;;;4.38;;
7104;SDS011;3594;42.152;24.714;2023-07-20T07:51:47;8.80;;;4.18;;
7104;SDS011;3594;42.152;24.714;2023-07-20T07:54:13;6.70;;;4.95;;
7104;SDS011;3594;42.152;24.714;2023-07-20T07:56:39;5.95;;;4.05;;
7104;SDS011;3594;42.152;24.714;2023-07-20T07:59:04;6.53;;;4.65;;
7104;SDS011;3594;42.152;24.714;2023-07-20T08:01:30;6.95;;;4.80;;
7104;SDS011;3594;42.152;24.714;2023-07-20T08:03:55;7.20;;;3.90;;
7104;SDS011;3594;42.152;24.714;2023-07-20T08:06:21;8.32;;;4.88;;
7104;SDS011;3594;42.152;24.714;2023-07-20T08:08:46;7.57;;;4.60;;
7104;SDS011;3594;42.152;24.714;2023-07-20T08:11:12;8.68;;;4.80;;
7104;SDS011;3594;42.152;24.714;2023-07-20T08:13:38;8.90;;;4.85;;
7104;SDS011;3594;42.152;24.714;2023-07-20T08:16:03;10.50;;;4.65;;
7104;SDS011;3594;42.152;24.714;2023-07-20T08:18:29;7.80;;;4.70;;
7104;SDS011;3594;42.152;24.714;2023-07-20T08:20:54;7.30;;;4.68;;
7104;SDS011;3594;42.152;24.714;2023-07-20T08:23:20;10.07;;;4.95;;
7104;SDS011;3594;42.152;24.714;2023-07-20T08:25:45;6.00;;;4.63;;
7104;SDS011;3594;42.152;24.714;2023-07-20T08:28:11;7.60;;;4.57;;
7104;SDS011;3594;42.152;24.714;2023-07-20T08:30:42;7.68;;;5.13;;
7104;SDS011;3594;42.152;24.714;2023-07-20T08:33:09;8.55;;;4.93;;
7104;SDS011;3594;42.152;24.714;2023-07-20T08:35:35;13.85;;;5.28;;
7104;SDS011;3594;42.152;24.714;2023-07-20T08:38:01;5.80;;;4.40;;
7104;SDS011;3594;42.152;24.714;2023-07-20T08:40:27;9.85;;;5.30;;
7104;SDS011;3594;42.152;24.714;2023-07-20T08:42:53;7.72;;;5.10;;
7104;SDS011;3594;42.152;24.714;2023-07-20T08:45:20;8.43;;;4.95;;
7104;SDS011;3594;42.152;24.714;2023-07-20T08:47:47;8.73;;;5.07;;
7104;SDS011;3594;42.152;24.714;2023-07-20T08:50:15;9.32;;;5.05;;
7104;SDS011;3594;42.152;24.714;2023-07-20T08:52:41;8.93;;;5.65;;
7104;SDS011;3594;42.152;24.714;2023-07-20T08:55:07;8.15;;;4.68;;
7104;SDS011;3594;42.152;24.714;2023-07-20T08:57:33;7.47;;;5.00;;
7104;SDS011;3594;42.152;24.714;2023-07-20T09:00:00;12.20;;;5.13;;
7104;SDS011;3594;42.152;24.714;2023-07-20T09:02:30;6.70;;;4.70;;
7104;SDS011;3594;42.152;24.714;2023-07-20T09:05:00;6.93;;;4.93;;
7104;SDS011;3594;42.152;24.714;2023-07-20T09:07:26;7.35;;;4.40;;
7104;SDS011;3594;42.152;24.714;2023-07-20T09:09:51;10.88;;;5.43;;
7104;SDS011;3594;42.152;24.714;2023-07-20T09:12:17;7.25;;;4.85;;
7104;SDS011;3594;42.152;24.714;2023-07-20T09:14:43;7.80;;;5.25;;
7104;SDS011;3594;42.152;24.714;2023-07-20T09:17:12;7.88;;;4.90;;
7104;SDS011;3594;42.152;24.714;2023-07-20T09:19:39;11.30;;;5.30;;
7104;SDS011;3594;42.152;24.714;2023-07-20T09:22:10;7.88;;;4.90;;
7104;SDS011;3594;42.152;24.714;2023-07-20T09:24:35;6.85;;;4.90;;
7104;SDS011;3594;42.152;24.714;2023-07-20T09:27:01;7.72;;;5.22;;
7104;SDS011;3594;42.152;24.714;2023-07-20T09:29:30;7.82;;;4.80;;
7104;SDS011;3594;42.152;24.714;2023-07-20T09:32:05;8.48;;;5.20;;
7104;SDS011;3594;42.152;24.714;2023-07-20T09:34:31;7.75;;;5.00;;
7104;SDS011;3594;42.152;24.714;2023-07-20T09:36:57;9.13;;;5.00;;
7104;SDS011;3594;42.152;24.714;2023-07-20T09:39:23;8.30;;;5.00;;
7104;SDS011;3594;42.152;24.714;2023-07-20T09:41:49;7.35;;;4.78;;
7104;SDS011;3594;42.152;24.714;2023-07-20T09:44:16;7.00;;;4.82;;
7104;SDS011;3594;42.152;24.714;2023-07-20T09:46:43;7.20;;;4.22;;
7104;SDS011;3594;42.152;24.714;2023-07-20T09:49:09;9.13;;;4.93;;
7104;SDS011;3594;42.152;24.714;2023-07-20T09:51:34;8.98;;;5.53;;
7104;SDS011;3594;42.152;24.714;2023-07-20T09:54:00;9.27;;;4.88;;
7104;SDS011;3594;42.152;24.714;2023-07-20T09:56:28;7.03;;;4.50;;
7104;SDS011;3594;42.152;24.714;2023-07-20T09:58:55;9.95;;;4.93;;
7104;SDS011;3594;42.152;24.714;2023-07-20T10:01:21;8.07;;;5.60;;
7104;SDS011;3594;42.152;24.714;2023-07-20T10:03:48;6.32;;;4.63;;
7104;SDS011;3594;42.152;24.714;2023-07-20T10:06:18;7.72;;;4.63;;
7104;SDS011;3594;42.152;24.714;2023-07-20T10:08:48;6.50;;;4.45;;
7104;SDS011;3594;42.152;24.714;2023-07-20T10:11:17;8.10;;;5.07;;
7104;SDS011;3594;42.152;24.714;2023-07-20T10:13:44;6.93;;;4.75;;
7104;SDS011;3594;42.152;24.714;2023-07-20T10:16:12;8.43;;;4.60;;
7104;SDS011;3594;42.152;24.714;2023-07-20T10:21:24;6.82;;;4.53;;
7104;SDS011;3594;42.152;24.714;2023-07-20T10:23:51;6.88;;;4.68;;
7104;SDS011;3594;42.152;24.714;2023-07-20T10:26:16;5.43;;;4.28;;
7104;SDS011;3594;42.152;24.714;2023-07-20T10:28:42;7.95;;;4.50;;
7104;SDS011;3594;42.152;24.714;2023-07-20T10:31:08;7.72;;;5.20;;
7104;SDS011;3594;42.152;24.714;2023-07-20T10:33:37;7.13;;;4.18;;
7104;SDS011;3594;42.152;24.714;2023-07-20T10:36:04;6.22;;;4.25;;
7104;SDS011;3594;42.152;24.714;2023-07-20T10:43:43;4.97;;;3.90;;
7104;SDS011;3594;42.152;24.714;2023-07-20T10:46:10;6.95;;;4.75;;
7104;SDS011;3594;42.152;24.714;2023-07-20T10:48:58;8.73;;;4.30;;
7104;SDS011;3594;42.152;24.714;2023-07-20T10:51:30;8.18;;;4.50;;
7104;SDS011;3594;42.152;24.714;2023-07-20T10:54:03;8.07;;;4.05;;
7104;SDS011;3594;42.152;24.714;2023-07-20T10:56:28;6.72;;;3.90;;
7104;SDS011;3594;42.152;24.714;2023-07-20T10:59:00;9.15;;;3.88;;
7104;SDS011;3594;42.152;24.714;2023-07-20T11:01:29;7.15;;;4.00;;
7104;SDS011;3594;42.152;24.714;2023-07-20T11:03:57;6.88;;;3.90;;
7104;SDS011;3594;42.152;24.714;2023-07-20T11:09:03;8.25;;;3.85;;
7104;SDS011;3594;42.152;24.714;2023-07-20T11:11:29;5.75;;;3.97;;
7104;SDS011;3594;42.152;24.714;2023-07-20T11:14:00;5.70;;;3.70;;
7104;SDS011;3594;42.152;24.714;2023-07-20T11:16:36;4.85;;;3.60;;
7104;SDS011;3594;42.152;24.714;2023-07-20T11:19:02;8.57;;;4.28;;
7104;SDS011;3594;42.152;24.714;2023-07-20T11:21:29;5.63;;;3.90;;
7104;SDS011;3594;42.152;24.714;2023-07-20T11:24:02;6.28;;;4.10;;
7104;SDS011;3594;42.152;24.714;2023-07-20T11:26:28;5.47;;;3.55;;
7104;SDS011;3594;42.152;24.714;2023-07-20T11:28:53;5.13;;;3.88;;
7104;SDS011;3594;42.152;24.714;2023-07-20T11:31:19;6.88;;;3.97;;
7104;SDS011;3594;42.152;24.714;2023-07-20T11:33:44;6.03;;;3.90;;
7104;SDS011;3594;42.152;24.714;2023-07-20T11:36:10;6.90;;;3.60;;
7104;SDS011;3594;42.152;24.714;2023-07-20T11:38:36;7.63;;;3.80;;
7104;SDS011;3594;42.152;24.714;2023-07-20T11:41:04;6.90;;;3.83;;
7104;SDS011;3594;42.152;24.714;2023-07-20T11:43:30;6.22;;;3.75;;
7104;SDS011;3594;42.152;24.714;2023-07-20T11:45:56;5.47;;;3.55;;
7104;SDS011;3594;42.152;24.714;2023-07-20T11:48:21;5.18;;;3.42;;
7104;SDS011;3594;42.152;24.714;2023-07-20T11:50:47;8.13;;;4.20;;
7104;SDS011;3594;42.152;24.714;2023-07-20T11:53:13;7.22;;;4.10;;
7104;SDS011;3594;42.152;24.714;2023-07-20T11:55:40;5.70;;;3.97;;
7104;SDS011;3594;42.152;24.714;2023-07-20T11:58:06;5.35;;;3.35;;
7104;SDS011;3594;42.152;24.714;2023-07-20T12:00:33;6.30;;;3.08;;
7104;SDS011;3594;42.152;24.714;2023-07-20T12:02:59;5.63;;;3.22;;
7104;SDS011;3594;42.152;24.714;2023-07-20T12:05:25;6.30;;;3.88;;
7104;SDS011;3594;42.152;24.714;2023-07-20T12:07:54;6.28;;;3.70;;
7104;SDS011;3594;42.152;24.714;2023-07-20T12:10:24;4.50;;;3.53;;
7104;SDS011;3594;42.152;24.714;2023-07-20T12:12:51;5.68;;;3.88;;
7104;SDS011;3594;42.152;24.714;2023-07-20T12:15:17;6.15;;;4.10;;
7104;SDS011;3594;42.152;24.714;2023-07-20T12:17:45;4.93;;;3.53;;
7104;SDS011;3594;42.152;24.714;2023-07-20T12:20:11;6.07;;;3.90;;
7104;SDS011;3594;42.152;24.714;2023-07-20T12:22:40;5.60;;;4.10;;
7104;SDS011;3594;42.152;24.714;2023-07-20T12:25:06;6.10;;;3.58;;
7104;SDS011;3594;42.152;24.714;2023-07-20T12:27:33;8.23;;;4.00;;
7104;SDS011;3594;42.152;24.714;2023-07-20T12:30:01;7.65;;;3.97;;
7104;SDS011;3594;42.152;24.714;2023-07-20T12:32:29;5.05;;;3.15;;
7104;SDS011;3594;42.152;24.714;2023-07-20T12:34:54;11.80;;;3.50;;
7104;SDS011;3594;42.152;24.714;2023-07-20T12:37:20;4.90;;;3.47;;
7104;SDS011;3594;42.152;24.714;2023-07-20T12:39:45;6.82;;;3.72;;
7104;SDS011;3594;42.152;24.714;2023-07-20T12:42:12;6.20;;;3.10;;
7104;SDS011;3594;42.152;24.714;2023-07-20T12:44:39;6.32;;;3.40;;
7104;SDS011;3594;42.152;24.714;2023-07-20T12:47:05;5.13;;;3.55;;
7104;SDS011;3594;42.152;24.714;2023-07-20T12:49:30;5.47;;;3.38;;
7104;SDS011;3594;42.152;24.714;2023-07-20T12:51:56;13.63;;;3.85;;
7104;SDS011;3594;42.152;24.714;2023-07-20T12:54:21;7.18;;;3.95;;
7104;SDS011;3594;42.152;24.714;2023-07-20T12:56:47;4.75;;;3.63;;
7104;SDS011;3594;42.152;24.714;2023-07-20T12:59:12;10.15;;;4.30;;
7104;SDS011;3594;42.152;24.714;2023-07-20T13:01:38;5.32;;;3.40;;
7104;SDS011;3594;42.152;24.714;2023-07-20T13:04:06;5.80;;;3.78;;
7104;SDS011;3594;42.152;24.714;2023-07-20T13:06:34;7.65;;;3.88;;
7104;SDS011;3594;42.152;24.714;2023-07-20T13:09:00;7.93;;;4.20;;
7104;SDS011;3594;42.152;24.714;2023-07-20T13:11:25;6.97;;;4.25;;
7104;SDS011;3594;42.152;24.714;2023-07-20T13:13:51;6.85;;;4.28;;
7104;SDS011;3594;42.152;24.714;2023-07-20T13:16:17;7.82;;;3.60;;
7104;SDS011;3594;42.152;24.714;2023-07-20T13:18:42;6.93;;;4.00;;
7104;SDS011;3594;42.152;24.714;2023-07-20T13:21:07;5.40;;;3.75;;
7104;SDS011;3594;42.152;24.714;2023-07-20T13:23:36;7.30;;;4.13;;
7104;SDS011;3594;42.152;24.714;2023-07-20T13:26:02;7.78;;;4.38;;
7104;SDS011;3594;42.152;24.714;2023-07-20T13:28:30;5.53;;;3.83;;
7104;SDS011;3594;42.152;24.714;2023-07-20T13:30:56;5.60;;;3.75;;
7104;SDS011;3594;42.152;24.714;2023-07-20T13:33:21;7.53;;;3.97;;
7104;SDS011;3594;42.152;24.714;2023-07-20T13:35:46;6.43;;;3.78;;
7104;SDS011;3594;42.152;24.714;2023-07-20T13:38:12;5.45;;;3.53;;
7104;SDS011;3594;42.152;24.714;2023-07-20T13:40:37;8.10;;;3.60;;
7104;SDS011;3594;42.152;24.714;2023-07-20T13:43:03;6.68;;;3.38;;
7104;SDS011;3594;42.152;24.714;2023-07-20T13:45:28;8.27;;;3.20;;
7104;SDS011;3594;42.152;24.714;2023-07-20T13:47:54;5.15;;;3.05;;
7104;SDS011;3594;42.152;24.714;2023-07-20T13:50:19;4.97;;;3.33;;
7104;SDS011;3594;42.152;24.714;2023-07-20T13:52:45;5.55;;;3.30;;
7104;SDS011;3594;42.152;24.714;2023-07-20T13:55:10;4.65;;;3.10;;
7104;SDS011;3594;42.152;24.714;2023-07-20T13:57:36;5.18;;;3.40;;
7104;SDS011;3594;42.152;24.714;2023-07-20T14:00:02;4.97;;;3.15;;
7104;SDS011;3594;42.152;24.714;2023-07-20T14:02:29;5.95;;;3.00;;
7104;SDS011;3594;42.152;24.714;2023-07-20T14:04:54;6.82;;;2.75;;
7104;SDS011;3594;42.152;24.714;2023-07-20T14:07:20;4.25;;;2.90;;
7104;SDS011;3594;42.152;24.714;2023-07-20T14:09:46;4.93;;;2.95;;
7104;SDS011;3594;42.152;24.714;2023-07-20T14:12:12;9.00;;;3.15;;
7104;SDS011;3594;42.152;24.714;2023-07-20T14:14:39;6.65;;;2.92;;
7104;SDS011;3594;42.152;24.714;2023-07-20T14:17:06;4.32;;;3.00;;
7104;SDS011;3594;42.152;24.714;2023-07-20T14:19:31;5.00;;;2.70;;
7104;SDS011;3594;42.152;24.714;2023-07-20T14:21:57;5.32;;;2.85;;
7104;SDS011;3594;42.152;24.714;2023-07-20T14:24:24;5.78;;;3.40;;
7104;SDS011;3594;42.152;24.714;2023-07-20T14:26:50;6.07;;;3.33;;
7104;SDS011;3594;42.152;24.714;2023-07-20T14:29:15;3.92;;;2.83;;
7104;SDS011;3594;42.152;24.714;2023-07-20T14:31:43;7.88;;;3.08;;
7104;SDS011;3594;42.152;24.714;2023-07-20T14:34:08;6.05;;;3.03;;
7104;SDS011;3594;42.152;24.714;2023-07-20T14:36:34;4.43;;;2.90;;
7104;SDS011;3594;42.152;24.714;2023-07-20T14:39:03;4.38;;;2.92;;
7104;SDS011;3594;42.152;24.714;2023-07-20T14:41:28;4.93;;;2.70;;
7104;SDS011;3594;42.152;24.714;2023-07-20T14:43:53;5.80;;;2.78;;
7104;SDS011;3594;42.152;24.714;2023-07-20T14:46:19;4.68;;;2.85;;
7104;SDS011;3594;42.152;24.714;2023-07-20T14:48:44;5.38;;;3.55;;
7104;SDS011;3594;42.152;24.714;2023-07-20T14:51:10;7.10;;;3.22;;
7104;SDS011;3594;42.152;24.714;2023-07-20T14:53:35;9.27;;;2.55;;
7104;SDS011;3594;42.152;24.714;2023-07-20T14:56:01;4.43;;;2.15;;
7104;SDS011;3594;42.152;24.714;2023-07-20T14:58:27;8.55;;;2.38;;
7104;SDS011;3594;42.152;24.714;2023-07-20T15:00:52;7.60;;;2.50;;
7104;SDS011;3594;42.152;24.714;2023-07-20T15:03:18;5.20;;;2.25;;
7104;SDS011;3594;42.152;24.714;2023-07-20T15:05:43;4.43;;;2.30;;
7104;SDS011;3594;42.152;24.714;2023-07-20T15:08:08;4.65;;;2.17;;
7104;SDS011;3594;42.152;24.714;2023-07-20T15:10:34;3.42;;;1.90;;
7104;SDS011;3594;42.152;24.714;2023-07-20T15:13:00;5.50;;;2.20;;
7104;SDS011;3594;42.152;24.714;2023-07-20T15:15:25;4.25;;;2.78;;
7104;SDS011;3594;42.152;24.714;2023-07-20T15:17:51;4.20;;;2.40;;